sensor_id;sensor_type;location;lat;lon;timestamp;pressure;altitude;pressure_sealevel;temperature;humidity
55315;BME280;41619;42.816;23.226;2023-03-03T00:02:06;95614.47;;;3.29;77.79
55315;BME280;41619;42.816;23.226;2023-03-03T00:04:31;95622.56;;;3.29;77.50
55315;BME280;41619;42.816;23.226;2023-03-03T00:06:57;95611.44;;;3.30;77.83
55315;BME280;41619;42.816;23.226;2023-03-03T00:09:22;95609.22;;;3.32;77.69
55315;BME280;41619;42.816;23.226;2023-03-03T00:11:53;95600.50;;;3.36;77.70
55315;BME280;41619;42.816;23.226;2023-03-03T00:14:28;95606.06;;;3.39;77.70
55315;BME280;41619;42.816;23.226;2023-03-03T00:16:54;95599.53;;;3.40;77.60
55315;BME280;41619;42.816;23.226;2023-03-03T00:19:21;95605.44;;;3.42;77.18
55315;BME280;41619;42.816;23.226;2023-03-03T00:21:48;95604.94;;;3.40;77.60
55315;BME280;41619;42.816;23.226;2023-03-03T00:24:35;95603.84;;;3.41;77.30
55315;BME280;41619;42.816;23.226;2023-03-03T00:27:14;95596.84;;;3.40;77.54
55315;BME280;41619;42.816;23.226;2023-03-03T00:29:45;95597.94;;;3.39;77.24
55315;BME280;41619;42.816;23.226;2023-03-03T00:32:26;95600.66;;;3.39;77.43
55315;BME280;41619;42.816;23.226;2023-03-03T00:34:54;95594.91;;;3.41;77.48
55315;BME280;41619;42.816;23.226;2023-03-03T00:37:33;95598.91;;;3.43;77.50
55315;BME280;41619;42.816;23.226;2023-03-03T00:40:21;95595.09;;;3.44;77.58
55315;BME280;41619;42.816;23.226;2023-03-03T00:42:49;95587.75;;;3.45;77.59
55315;BME280;41619;42.816;23.226;2023-03-03T00:45:23;95579.66;;;3.45;77.58
55315;BME280;41619;42.816;23.226;2023-03-03T00:47:51;95584.75;;;3.46;77.45
55315;BME280;41619;42.816;23.226;2023-03-03T00:50:25;95584.41;;;3.48;77.41
55315;BME280;41619;42.816;23.226;2023-03-03T00:55:22;95563.25;;;3.50;77.52
55315;BME280;41619;42.816;23.226;2023-03-03T00:57:48;95567.38;;;3.47;77.58
55315;BME280;41619;42.816;23.226;2023-03-03T01:00:14;95564.22;;;3.45;77.42
55315;BME280;41619;42.816;23.226;2023-03-03T01:02:39;95556.56;;;3.47;77.51
55315;BME280;41619;42.816;23.226;2023-03-03T01:05:05;95554.66;;;3.48;77.27
55315;BME280;41619;42.816;23.226;2023-03-03T01:07:30;95547.19;;;3.45;77.45
55315;BME280;41619;42.816;23.226;2023-03-03T01:09:55;95548.78;;;3.46;77.51
55315;BME280;41619;42.816;23.226;2023-03-03T01:12:22;95555.28;;;3.45;77.65
55315;BME280;41619;42.816;23.226;2023-03-03T01:14:48;95545.25;;;3.45;77.48
55315;BME280;41619;42.816;23.226;2023-03-03T01:17:17;95541.28;;;3.43;77.22
55315;BME280;41619;42.816;23.226;2023-03-03T01:19:42;95542.41;;;3.42;77.49
55315;BME280;41619;42.816;23.226;2023-03-03T01:22:07;95544.00;;;3.43;77.34
55315;BME280;41619;42.816;23.226;2023-03-03T01:24:33;95545.44;;;3.40;77.27
55315;BME280;41619;42.816;23.226;2023-03-03T01:26:58;95539.38;;;3.43;77.82
55315;BME280;41619;42.816;23.226;2023-03-03T01:29:24;95545.59;;;3.44;77.56
55315;BME280;41619;42.816;23.226;2023-03-03T01:31:49;95537.47;;;3.44;77.50
55315;BME280;41619;42.816;23.226;2023-03-03T01:34:14;95543.34;;;3.46;77.74
55315;BME280;41619;42.816;23.226;2023-03-03T01:36:40;95541.44;;;3.46;77.67
55315;BME280;41619;42.816;23.226;2023-03-03T01:39:05;95546.06;;;3.46;77.32
55315;BME280;41619;42.816;23.226;2023-03-03T01:41:31;95545.75;;;3.47;77.32
55315;BME280;41619;42.816;23.226;2023-03-03T01:43:58;95540.00;;;3.49;77.37
55315;BME280;41619;42.816;23.226;2023-03-03T01:49:35;95543.66;;;3.53;77.59
55315;BME280;41619;42.816;23.226;2023-03-03T01:52:09;95535.72;;;3.56;77.91
55315;BME280;41619;42.816;23.226;2023-03-03T01:54:43;95546.72;;;3.60;77.47
55315;BME280;41619;42.816;23.226;2023-03-03T01:57:14;95540.19;;;3.61;77.77
55315;BME280;41619;42.816;23.226;2023-03-03T01:59:43;95539.06;;;3.62;77.52
55315;BME280;41619;42.816;23.226;2023-03-03T02:02:10;95536.69;;;3.60;77.55
55315;BME280;41619;42.816;23.226;2023-03-03T02:04:35;95532.38;;;3.59;77.57
55315;BME280;41619;42.816;23.226;2023-03-03T02:07:04;95541.63;;;3.58;77.33
55315;BME280;41619;42.816;23.226;2023-03-03T02:09:55;95540.03;;;3.57;77.40
55315;BME280;41619;42.816;23.226;2023-03-03T02:12:25;95536.22;;;3.58;77.57
55315;BME280;41619;42.816;23.226;2023-03-03T02:14:52;95538.59;;;3.60;77.41
55315;BME280;41619;42.816;23.226;2023-03-03T02:17:17;95537.78;;;3.59;77.48
55315;BME280;41619;42.816;23.226;2023-03-03T02:20:04;95533.50;;;3.58;77.43
55315;BME280;41619;42.816;23.226;2023-03-03T02:22:42;95527.63;;;3.56;77.49
55315;BME280;41619;42.816;23.226;2023-03-03T02:25:14;95530.31;;;3.56;77.09
55315;BME280;41619;42.816;23.226;2023-03-03T02:27:42;95534.16;;;3.55;77.28
55315;BME280;41619;42.816;23.226;2023-03-03T02:30:19;95523.78;;;3.57;77.47
55315;BME280;41619;42.816;23.226;2023-03-03T02:32:45;95524.59;;;3.58;77.45
55315;BME280;41619;42.816;23.226;2023-03-03T02:35:31;95526.03;;;3.55;77.42
55315;BME280;41619;42.816;23.226;2023-03-03T02:38:24;95519.03;;;3.54;77.32
55315;BME280;41619;42.816;23.226;2023-03-03T02:43:47;95520.63;;;3.55;77.84
55315;BME280;41619;42.816;23.226;2023-03-03T02:46:15;95517.91;;;3.55;77.46
55315;BME280;41619;42.816;23.226;2023-03-03T02:48:40;95523.31;;;3.55;77.43
55315;BME280;41619;42.816;23.226;2023-03-03T02:51:06;95518.69;;;3.56;77.62
55315;BME280;41619;42.816;23.226;2023-03-03T02:53:31;95523.31;;;3.55;77.29
55315;BME280;41619;42.816;23.226;2023-03-03T02:55:56;95530.63;;;3.55;77.26
55315;BME280;41619;42.816;23.226;2023-03-03T02:58:22;95524.44;;;3.54;77.44
55315;BME280;41619;42.816;23.226;2023-03-03T03:00:47;95515.81;;;3.52;77.55
55315;BME280;41619;42.816;23.226;2023-03-03T03:03:13;95520.44;;;3.52;77.38
55315;BME280;41619;42.816;23.226;2023-03-03T03:05:39;95513.75;;;3.49;77.25
55315;BME280;41619;42.816;23.226;2023-03-03T03:08:04;95512.63;;;3.50;77.42
55315;BME280;41619;42.816;23.226;2023-03-03T03:10:30;95516.94;;;3.51;77.33
55315;BME280;41619;42.816;23.226;2023-03-03T03:12:55;95515.00;;;3.52;77.03
55315;BME280;41619;42.816;23.226;2023-03-03T03:15:20;95515.66;;;3.49;77.35
55315;BME280;41619;42.816;23.226;2023-03-03T03:17:46;95514.38;;;3.46;77.36
55315;BME280;41619;42.816;23.226;2023-03-03T03:20:11;95515.50;;;3.45;77.31
55315;BME280;41619;42.816;23.226;2023-03-03T03:22:37;95508.03;;;3.42;77.06
55315;BME280;41619;42.816;23.226;2023-03-03T03:25:02;95510.25;;;3.40;77.27
55315;BME280;41619;42.816;23.226;2023-03-03T03:27:28;95504.06;;;3.40;77.27
55315;BME280;41619;42.816;23.226;2023-03-03T03:29:53;95503.56;;;3.38;77.24
55315;BME280;41619;42.816;23.226;2023-03-03T03:32:19;95505.50;;;3.37;77.13
55315;BME280;41619;42.816;23.226;2023-03-03T03:34:44;95504.38;;;3.38;77.62
55315;BME280;41619;42.816;23.226;2023-03-03T03:37:09;95501.34;;;3.40;77.47
55315;BME280;41619;42.816;23.226;2023-03-03T03:39:35;95495.94;;;3.40;77.32
55315;BME280;41619;42.816;23.226;2023-03-03T03:42:00;95494.03;;;3.40;77.51
55315;BME280;41619;42.816;23.226;2023-03-03T03:44:26;95489.41;;;3.41;77.33
55315;BME280;41619;42.816;23.226;2023-03-03T03:46:52;95492.91;;;3.41;77.76
55315;BME280;41619;42.816;23.226;2023-03-03T03:49:17;95492.91;;;3.41;77.65
55315;BME280;41619;42.816;23.226;2023-03-03T03:51:42;95492.91;;;3.41;77.74
55315;BME280;41619;42.816;23.226;2023-03-03T03:54:08;95489.09;;;3.42;77.75
55315;BME280;41619;42.816;23.226;2023-03-03T03:56:33;95478.28;;;3.42;77.64
55315;BME280;41619;42.816;23.226;2023-03-03T03:58:59;95493.38;;;3.43;77.64
55315;BME280;41619;42.816;23.226;2023-03-03T04:01:25;95483.03;;;3.45;77.70
55315;BME280;41619;42.816;23.226;2023-03-03T04:03:51;95485.75;;;3.45;77.94
55315;BME280;41619;42.816;23.226;2023-03-03T04:06:17;95494.03;;;3.40;77.65
55315;BME280;41619;42.816;23.226;2023-03-03T04:08:42;95491.66;;;3.39;77.73
55315;BME280;41619;42.816;23.226;2023-03-03T04:11:08;95485.75;;;3.37;77.33
55315;BME280;41619;42.816;23.226;2023-03-03T04:13:34;95489.06;;;3.33;77.95
55315;BME280;41619;42.816;23.226;2023-03-03T04:16:00;95490.97;;;3.33;78.04
55315;BME280;41619;42.816;23.226;2023-03-03T04:18:26;95487.31;;;3.29;78.20
55315;BME280;41619;42.816;23.226;2023-03-03T04:20:52;95487.66;;;3.27;78.33
55315;BME280;41619;42.816;23.226;2023-03-03T04:23:19;95487.16;;;3.25;78.11
55315;BME280;41619;42.816;23.226;2023-03-03T04:25:47;95484.47;;;3.25;78.24
55315;BME280;41619;42.816;23.226;2023-03-03T04:28:14;95483.34;;;3.26;78.32
55315;BME280;41619;42.816;23.226;2023-03-03T04:30:40;95492.59;;;3.25;78.47
55315;BME280;41619;42.816;23.226;2023-03-03T04:33:05;95487.03;;;3.22;78.74
55315;BME280;41619;42.816;23.226;2023-03-03T04:35:31;95484.31;;;3.22;78.71
55315;BME280;41619;42.816;23.226;2023-03-03T04:37:56;95477.47;;;3.24;78.69
55315;BME280;41619;42.816;23.226;2023-03-03T04:40:21;95483.66;;;3.25;78.73
55315;BME280;41619;42.816;23.226;2023-03-03T04:42:47;95481.75;;;3.25;79.20
55315;BME280;41619;42.816;23.226;2023-03-03T04:45:12;95484.94;;;3.27;79.08
55315;BME280;41619;42.816;23.226;2023-03-03T04:47:38;95482.56;;;3.26;79.00
55315;BME280;41619;42.816;23.226;2023-03-03T04:50:04;95480.97;;;3.25;79.23
55315;BME280;41619;42.816;23.226;2023-03-03T04:52:30;95482.88;;;3.24;79.30
55315;BME280;41619;42.816;23.226;2023-03-03T04:54:55;95479.84;;;3.26;79.28
55315;BME280;41619;42.816;23.226;2023-03-03T04:57:20;95482.09;;;3.24;79.42
55315;BME280;41619;42.816;23.226;2023-03-03T04:59:46;95488.94;;;3.21;79.34
55315;BME280;41619;42.816;23.226;2023-03-03T05:02:11;95490.53;;;3.22;79.18
55315;BME280;41619;42.816;23.226;2023-03-03T05:04:37;95485.09;;;3.22;79.64
55315;BME280;41619;42.816;23.226;2023-03-03T05:07:03;95485.91;;;3.23;79.28
55315;BME280;41619;42.816;23.226;2023-03-03T05:09:28;95488.94;;;3.21;79.59
55315;BME280;41619;42.816;23.226;2023-03-03T05:11:53;95490.03;;;3.20;79.43
55315;BME280;41619;42.816;23.226;2023-03-03T05:14:19;95495.44;;;3.20;79.53
55315;BME280;41619;42.816;23.226;2023-03-03T05:16:44;95493.53;;;3.21;79.97
55315;BME280;41619;42.816;23.226;2023-03-03T05:19:11;95493.84;;;3.19;79.71
55315;BME280;41619;42.816;23.226;2023-03-03T05:21:37;95497.69;;;3.18;79.56
55315;BME280;41619;42.816;23.226;2023-03-03T05:24:07;95496.56;;;3.19;79.69
55315;BME280;41619;42.816;23.226;2023-03-03T05:26:32;95496.88;;;3.18;79.68
55315;BME280;41619;42.816;23.226;2023-03-03T05:28:58;95501.19;;;3.19;79.68
55315;BME280;41619;42.816;23.226;2023-03-03T05:31:23;95501.34;;;3.22;79.87
55315;BME280;41619;42.816;23.226;2023-03-03T05:33:51;95491.00;;;3.24;80.31
55315;BME280;41619;42.816;23.226;2023-03-03T05:36:16;95486.53;;;3.28;80.06
55315;BME280;41619;42.816;23.226;2023-03-03T05:38:42;95502.91;;;3.32;79.99
55315;BME280;41619;42.816;23.226;2023-03-03T05:41:08;95493.69;;;3.33;80.05
55315;BME280;41619;42.816;23.226;2023-03-03T05:43:33;95504.19;;;3.34;80.16
55315;BME280;41619;42.816;23.226;2023-03-03T05:45:59;95503.41;;;3.34;79.96
55315;BME280;41619;42.816;23.226;2023-03-03T05:48:25;95501.47;;;3.34;80.24
55315;BME280;41619;42.816;23.226;2023-03-03T05:50:51;95503.09;;;3.36;80.06
55315;BME280;41619;42.816;23.226;2023-03-03T05:53:16;95506.09;;;3.34;80.45
55315;BME280;41619;42.816;23.226;2023-03-03T05:55:42;95502.59;;;3.33;80.13
55315;BME280;41619;42.816;23.226;2023-03-03T05:58:07;95515.50;;;3.37;80.62
55315;BME280;41619;42.816;23.226;2023-03-03T06:00:33;95510.25;;;3.40;80.29
55315;BME280;41619;42.816;23.226;2023-03-03T06:02:58;95512.31;;;3.43;79.94
55315;BME280;41619;42.816;23.226;2023-03-03T06:05:24;95511.50;;;3.51;80.17
55315;BME280;41619;42.816;23.226;2023-03-03T06:07:49;95517.09;;;3.55;80.27
55315;BME280;41619;42.816;23.226;2023-03-03T06:10:15;95509.94;;;3.59;80.48
55315;BME280;41619;42.816;23.226;2023-03-03T06:12:40;95507.06;;;3.64;80.40
55315;BME280;41619;42.816;23.226;2023-03-03T06:15:06;95513.75;;;3.67;80.69
55315;BME280;41619;42.816;23.226;2023-03-03T06:17:32;95519.31;;;3.70;80.37
55315;BME280;41619;42.816;23.226;2023-03-03T06:19:57;95521.53;;;3.68;80.27
55315;BME280;41619;42.816;23.226;2023-03-03T06:22:23;95509.91;;;3.68;80.17
55315;BME280;41619;42.816;23.226;2023-03-03T06:24:48;95519.94;;;3.67;80.41
55315;BME280;41619;42.816;23.226;2023-03-03T06:27:14;95519.81;;;3.63;79.91
55315;BME280;41619;42.816;23.226;2023-03-03T06:29:39;95514.06;;;3.65;79.96
55315;BME280;41619;42.816;23.226;2023-03-03T06:32:05;95518.03;;;3.68;79.78
55315;BME280;41619;42.816;23.226;2023-03-03T06:34:30;95517.41;;;3.71;80.08
55315;BME280;41619;42.816;23.226;2023-03-03T06:36:55;95522.81;;;3.71;79.67
55315;BME280;41619;42.816;23.226;2023-03-03T06:39:21;95518.38;;;3.75;79.94
55315;BME280;41619;42.816;23.226;2023-03-03T06:41:46;95521.22;;;3.78;79.93
55315;BME280;41619;42.816;23.226;2023-03-03T06:44:12;95523.63;;;3.80;79.43
55315;BME280;41619;42.816;23.226;2023-03-03T06:46:38;95523.63;;;3.80;80.14
55315;BME280;41619;42.816;23.226;2023-03-03T06:49:03;95520.25;;;3.83;79.88
55315;BME280;41619;42.816;23.226;2023-03-03T06:51:36;95530.44;;;3.86;79.62
55315;BME280;41619;42.816;23.226;2023-03-03T06:54:30;95531.09;;;3.91;79.44
55315;BME280;41619;42.816;23.226;2023-03-03T06:56:58;95525.97;;;3.90;79.68
55315;BME280;41619;42.816;23.226;2023-03-03T06:59:26;95529.81;;;3.89;79.43
55315;BME280;41619;42.816;23.226;2023-03-03T07:01:52;95536.81;;;3.90;79.51
55315;BME280;41619;42.816;23.226;2023-03-03T07:04:32;95531.91;;;3.92;79.27
55315;BME280;41619;42.816;23.226;2023-03-03T07:07:16;95532.84;;;3.96;79.28
55315;BME280;41619;42.816;23.226;2023-03-03T07:09:43;95527.91;;;3.98;79.18
55315;BME280;41619;42.816;23.226;2023-03-03T07:12:12;95530.44;;;4.03;79.26
55315;BME280;41619;42.816;23.226;2023-03-03T07:14:47;95530.44;;;4.03;78.71
55315;BME280;41619;42.816;23.226;2023-03-03T07:17:18;95530.09;;;4.05;78.98
55315;BME280;41619;42.816;23.226;2023-03-03T07:19:46;95527.88;;;4.07;79.35
55315;BME280;41619;42.816;23.226;2023-03-03T07:22:21;95522.13;;;4.08;79.01
55315;BME280;41619;42.816;23.226;2023-03-03T07:24:54;95523.75;;;4.09;78.83
55315;BME280;41619;42.816;23.226;2023-03-03T07:27:24;95525.47;;;4.14;78.67
55315;BME280;41619;42.816;23.226;2023-03-03T07:29:51;95524.19;;;4.20;79.13
55315;BME280;41619;42.816;23.226;2023-03-03T07:32:26;95527.03;;;4.23;78.97
55315;BME280;41619;42.816;23.226;2023-03-03T07:34:54;95528.63;;;4.24;79.09
55315;BME280;41619;42.816;23.226;2023-03-03T07:37:36;95528.31;;;4.26;79.25
55315;BME280;41619;42.816;23.226;2023-03-03T07:40:27;95525.59;;;4.26;78.49
55315;BME280;41619;42.816;23.226;2023-03-03T07:42:55;95519.56;;;4.20;78.23
55315;BME280;41619;42.816;23.226;2023-03-03T07:45:29;95524.34;;;4.15;78.61
55315;BME280;41619;42.816;23.226;2023-03-03T07:48:24;95522.44;;;4.07;77.99
55315;BME280;41619;42.816;23.226;2023-03-03T07:50:51;95533.78;;;4.00;78.11
55315;BME280;41619;42.816;23.226;2023-03-03T07:53:28;95524.72;;;3.96;78.28
55315;BME280;41619;42.816;23.226;2023-03-03T07:55:58;95525.50;;;3.97;78.27
55315;BME280;41619;42.816;23.226;2023-03-03T07:58:36;95525.50;;;3.97;78.32
55315;BME280;41619;42.816;23.226;2023-03-03T08:06:58;95516.91;;;3.94;78.78
55315;BME280;41619;42.816;23.226;2023-03-03T08:09:37;95511.66;;;3.98;78.35
55315;BME280;41619;42.816;23.226;2023-03-03T08:14:36;95521.19;;;4.13;78.79
55315;BME280;41619;42.816;23.226;2023-03-03T08:17:27;95512.72;;;4.14;78.40
55315;BME280;41619;42.816;23.226;2023-03-03T08:19:56;95513.03;;;4.21;78.32
55315;BME280;41619;42.816;23.226;2023-03-03T08:22:33;95513.34;;;4.29;78.35
55315;BME280;41619;42.816;23.226;2023-03-03T08:25:02;95512.34;;;4.33;78.29
55315;BME280;41619;42.816;23.226;2023-03-03T08:27:28;95515.22;;;4.37;78.16
55315;BME280;41619;42.816;23.226;2023-03-03T08:29:53;95508.50;;;4.43;78.19
55315;BME280;41619;42.816;23.226;2023-03-03T08:32:19;95509.25;;;4.52;78.38
55315;BME280;41619;42.816;23.226;2023-03-03T08:34:44;95502.06;;;4.56;78.48
55315;BME280;41619;42.816;23.226;2023-03-03T08:37:09;95510.53;;;4.54;78.06
55315;BME280;41619;42.816;23.226;2023-03-03T08:39:35;95500.81;;;4.53;78.29
55315;BME280;41619;42.816;23.226;2023-03-03T08:42:00;95510.19;;;4.56;77.57
55315;BME280;41619;42.816;23.226;2023-03-03T08:44:26;95503.19;;;4.55;77.36
55315;BME280;41619;42.816;23.226;2023-03-03T08:46:51;95503.66;;;4.57;77.58
55315;BME280;41619;42.816;23.226;2023-03-03T08:49:16;95505.25;;;4.58;77.06
55315;BME280;41619;42.816;23.226;2023-03-03T08:51:42;95508.75;;;4.59;77.49
55315;BME280;41619;42.816;23.226;2023-03-03T08:54:07;95497.91;;;4.59;77.05
55315;BME280;41619;42.816;23.226;2023-03-03T08:56:33;95498.03;;;4.62;77.06
55315;BME280;41619;42.816;23.226;2023-03-03T08:58:58;95503.44;;;4.71;77.34
55315;BME280;41619;42.816;23.226;2023-03-03T09:01:24;95510.72;;;4.79;77.66
55315;BME280;41619;42.816;23.226;2023-03-03T09:03:49;95505.44;;;4.82;77.48
55315;BME280;41619;42.816;23.226;2023-03-03T09:06:15;95502.22;;;4.89;76.83
55315;BME280;41619;42.816;23.226;2023-03-03T09:08:40;95509.84;;;4.96;76.89
55315;BME280;41619;42.816;23.226;2023-03-03T09:11:12;95505.53;;;4.95;76.67
55315;BME280;41619;42.816;23.226;2023-03-03T09:13:38;95503.63;;;4.95;77.00
55315;BME280;41619;42.816;23.226;2023-03-03T09:16:14;95505.69;;;4.98;76.83
55315;BME280;41619;42.816;23.226;2023-03-03T09:18:40;95507.44;;;5.03;76.40
55315;BME280;41619;42.816;23.226;2023-03-03T09:21:30;95508.22;;;5.03;76.80
55315;BME280;41619;42.816;23.226;2023-03-03T09:23:58;95500.72;;;5.00;76.42
55315;BME280;41619;42.816;23.226;2023-03-03T09:28:54;95497.22;;;5.00;76.37
55315;BME280;41619;42.816;23.226;2023-03-03T09:31:53;95497.97;;;5.09;76.45
55315;BME280;41619;42.816;23.226;2023-03-03T09:34:42;95495.06;;;5.14;76.62
55315;BME280;41619;42.816;23.226;2023-03-03T09:37:32;95497.56;;;5.19;76.43
55315;BME280;41619;42.816;23.226;2023-03-03T09:40:15;95502.06;;;5.15;76.25
55315;BME280;41619;42.816;23.226;2023-03-03T09:43:03;95499.56;;;5.10;75.97
55315;BME280;41619;42.816;23.226;2023-03-03T09:48:41;95501.22;;;5.02;76.22
55315;BME280;41619;42.816;23.226;2023-03-03T09:51:14;95501.38;;;4.97;76.01
55315;BME280;41619;42.816;23.226;2023-03-03T09:57:24;95497.88;;;4.97;76.34
55315;BME280;41619;42.816;23.226;2023-03-03T10:05:36;95495.84;;;5.35;76.51
55315;BME280;41619;42.816;23.226;2023-03-03T10:13:57;95486.53;;;5.45;75.33
55315;BME280;41619;42.816;23.226;2023-03-03T10:21:23;95488.38;;;5.53;75.52
55315;BME280;41619;42.816;23.226;2023-03-03T10:24:08;95484.19;;;5.56;75.69
55315;BME280;41619;42.816;23.226;2023-03-03T10:32:37;95479.41;;;5.73;75.46
55315;BME280;41619;42.816;23.226;2023-03-03T10:37:49;95479.34;;;5.82;75.88
55315;BME280;41619;42.816;23.226;2023-03-03T10:42:58;95466.84;;;5.90;75.20
55315;BME280;41619;42.816;23.226;2023-03-03T10:48:07;95460.19;;;5.99;74.69
55315;BME280;41619;42.816;23.226;2023-03-03T10:53:28;95457.97;;;6.14;74.89
55315;BME280;41619;42.816;23.226;2023-03-03T10:56:16;95460.03;;;6.17;74.87
55315;BME280;41619;42.816;23.226;2023-03-03T11:07:21;95448.31;;;6.04;74.23
55315;BME280;41619;42.816;23.226;2023-03-03T11:15:38;95445.09;;;5.90;73.95
55315;BME280;41619;42.816;23.226;2023-03-03T11:34:00;95422.06;;;5.96;74.12
55315;BME280;41619;42.816;23.226;2023-03-03T11:39:01;95427.25;;;6.01;74.37
55315;BME280;41619;42.816;23.226;2023-03-03T11:41:30;95422.97;;;6.00;74.98
55315;BME280;41619;42.816;23.226;2023-03-03T11:49:23;95426.69;;;5.95;74.44
55315;BME280;41619;42.816;23.226;2023-03-03T11:55:23;95425.75;;;5.91;74.91
55315;BME280;41619;42.816;23.226;2023-03-03T11:58:12;95419.38;;;5.87;74.84
55315;BME280;41619;42.816;23.226;2023-03-03T12:19:41;95421.19;;;5.50;76.09
55315;BME280;41619;42.816;23.226;2023-03-03T12:22:34;95419.94;;;5.47;76.13
55315;BME280;41619;42.816;23.226;2023-03-03T12:30:05;95424.13;;;5.45;76.29
55315;BME280;41619;42.816;23.226;2023-03-03T12:38:55;95424.47;;;5.56;76.52
55315;BME280;41619;42.816;23.226;2023-03-03T12:43:59;95424.88;;;5.66;76.38
55315;BME280;41619;42.816;23.226;2023-03-03T12:49:17;95427.69;;;5.70;76.44
55315;BME280;41619;42.816;23.226;2023-03-03T12:57:42;95415.25;;;5.69;75.74
55315;BME280;41619;42.816;23.226;2023-03-03T13:00:25;95417.19;;;5.68;76.35
55315;BME280;41619;42.816;23.226;2023-03-03T13:03:00;95419.09;;;5.68;76.13
55315;BME280;41619;42.816;23.226;2023-03-03T13:16:57;95412.09;;;5.67;75.89
55315;BME280;41619;42.816;23.226;2023-03-03T13:19:25;95406.31;;;5.68;76.46
55315;BME280;41619;42.816;23.226;2023-03-03T13:21:58;95404.50;;;5.72;76.41
55315;BME280;41619;42.816;23.226;2023-03-03T13:27:03;95401.97;;;5.88;76.13
55315;BME280;41619;42.816;23.226;2023-03-03T13:29:36;95402.69;;;5.97;76.22
55315;BME280;41619;42.816;23.226;2023-03-03T13:32:11;95404.28;;;6.11;76.00
55315;BME280;41619;42.816;23.226;2023-03-03T13:37:21;95404.44;;;6.38;75.73
55315;BME280;41619;42.816;23.226;2023-03-03T13:42:24;95396.03;;;6.68;75.30
55315;BME280;41619;42.816;23.226;2023-03-03T13:44:51;95399.88;;;6.79;74.94
55315;BME280;41619;42.816;23.226;2023-03-03T13:53:34;95389.69;;;6.88;74.59
55315;BME280;41619;42.816;23.226;2023-03-03T13:56:31;95387.19;;;6.83;74.58
55315;BME280;41619;42.816;23.226;2023-03-03T14:04:57;95393.31;;;6.68;74.57
55315;BME280;41619;42.816;23.226;2023-03-03T14:07:48;95395.81;;;6.61;74.55
55315;BME280;41619;42.816;23.226;2023-03-03T14:10:46;95397.09;;;6.51;74.65
55315;BME280;41619;42.816;23.226;2023-03-03T14:13:24;95402.16;;;6.41;74.46
55315;BME280;41619;42.816;23.226;2023-03-03T14:16:04;95397.97;;;6.31;74.69
55315;BME280;41619;42.816;23.226;2023-03-03T14:19:02;95395.81;;;6.24;75.13
55315;BME280;41619;42.816;23.226;2023-03-03T14:22:03;95396.38;;;6.18;74.71
55315;BME280;41619;42.816;23.226;2023-03-03T14:24:29;95396.13;;;6.11;75.64
55315;BME280;41619;42.816;23.226;2023-03-03T14:26:56;95389.00;;;6.06;74.99
55315;BME280;41619;42.816;23.226;2023-03-03T14:31:54;95390.09;;;5.93;74.95
55315;BME280;41619;42.816;23.226;2023-03-03T14:36:50;95384.53;;;5.89;75.06
55315;BME280;41619;42.816;23.226;2023-03-03T14:39:38;95384.88;;;5.88;74.81
55315;BME280;41619;42.816;23.226;2023-03-03T14:42:11;95379.66;;;5.83;75.04
55315;BME280;41619;42.816;23.226;2023-03-03T14:49:37;95385.63;;;5.76;75.09
55315;BME280;41619;42.816;23.226;2023-03-03T14:54:41;95381.81;;;5.77;74.97
55315;BME280;41619;42.816;23.226;2023-03-03T14:59:39;95372.19;;;5.80;75.05
55315;BME280;41619;42.816;23.226;2023-03-03T15:04:45;95378.41;;;5.80;74.54
55315;BME280;41619;42.816;23.226;2023-03-03T15:07:34;95371.41;;;5.79;74.85
55315;BME280;41619;42.816;23.226;2023-03-03T15:10:07;95381.13;;;5.80;74.76
55315;BME280;41619;42.816;23.226;2023-03-03T15:12:38;95369.81;;;5.78;74.81
55315;BME280;41619;42.816;23.226;2023-03-03T15:17:39;95364.25;;;5.74;74.60
55315;BME280;41619;42.816;23.226;2023-03-03T15:22:58;95371.03;;;5.68;74.73
55315;BME280;41619;42.816;23.226;2023-03-03T15:25:46;95370.13;;;5.64;74.76
55315;BME280;41619;42.816;23.226;2023-03-03T15:28:21;95364.22;;;5.62;74.58
55315;BME280;41619;42.816;23.226;2023-03-03T15:31:07;95359.47;;;5.59;74.95
55315;BME280;41619;42.816;23.226;2023-03-03T15:36:46;95370.53;;;5.54;75.12
55315;BME280;41619;42.816;23.226;2023-03-03T15:50:12;95378.53;;;5.51;75.49
55315;BME280;41619;42.816;23.226;2023-03-03T15:52:49;95383.19;;;5.50;75.66
55315;BME280;41619;42.816;23.226;2023-03-03T16:00:56;95394.38;;;5.48;75.34
55315;BME280;41619;42.816;23.226;2023-03-03T16:03:35;95386.91;;;5.45;75.04
55315;BME280;41619;42.816;23.226;2023-03-03T16:11:25;95394.47;;;5.40;75.93
55315;BME280;41619;42.816;23.226;2023-03-03T16:14:03;95398.28;;;5.39;75.81
55315;BME280;41619;42.816;23.226;2023-03-03T16:16:54;95399.41;;;5.38;76.25
55315;BME280;41619;42.816;23.226;2023-03-03T16:27:12;95415.56;;;5.34;75.56
55315;BME280;41619;42.816;23.226;2023-03-03T16:35:31;95418.63;;;5.33;76.60
55315;BME280;41619;42.816;23.226;2023-03-03T16:38:04;95420.09;;;5.30;76.09
55315;BME280;41619;42.816;23.226;2023-03-03T16:40:37;95429.34;;;5.29;76.59
55315;BME280;41619;42.816;23.226;2023-03-03T16:45:41;95429.69;;;5.28;76.79
55315;BME280;41619;42.816;23.226;2023-03-03T16:48:44;95426.19;;;5.27;76.50
55315;BME280;41619;42.816;23.226;2023-03-03T16:51:30;95433.53;;;5.27;77.03
55315;BME280;41619;42.816;23.226;2023-03-03T16:59:35;95437.03;;;5.27;76.78
55315;BME280;41619;42.816;23.226;2023-03-03T17:04:46;95439.28;;;5.25;77.01
55315;BME280;41619;42.816;23.226;2023-03-03T17:07:30;95448.22;;;5.26;77.41
55315;BME280;41619;42.816;23.226;2023-03-03T17:10:23;95445.84;;;5.24;77.32
55315;BME280;41619;42.816;23.226;2023-03-03T17:29:18;95464.84;;;5.24;77.61
55315;BME280;41619;42.816;23.226;2023-03-03T17:37:42;95468.69;;;5.23;77.86
55315;BME280;41619;42.816;23.226;2023-03-03T17:40:22;95470.59;;;5.23;77.49
55315;BME280;41619;42.816;23.226;2023-03-03T17:46:19;95486.88;;;5.23;77.65
55315;BME280;41619;42.816;23.226;2023-03-03T18:16:19;95510.34;;;5.18;78.26
55315;BME280;41619;42.816;23.226;2023-03-03T18:22:04;95512.25;;;5.18;78.29